Time;durP1;ratioP1;P1;durP2;ratioP2;P2;SDS_P1;SDS_P2;PMS_P1;PMS_P2;Temp;Humidity;BMP_temperature;BMP_pressure;BME280_temperature;BME280_humidity;BME280_pressure;Samples;Min_cycle;Max_cycle;Signal;HPM_P1;HPM_P2
2021/09/09 00:00:43;;;;;;;3.80;1.80;;;;;;;19.41;76.40;99969.59;5055447;28;20036;-72
2021/09/09 00:03:08;;;;;;;2.20;1.70;;;;;;;19.39;76.39;99967.16;5073931;28;20044;-72
2021/09/09 00:05:34;;;;;;;3.15;1.80;;;;;;;19.34;76.41;99966.63;5057197;28;20025;-73
2021/09/09 00:07:59;;;;;;;3.35;1.60;;;;;;;19.33;76.64;99968.59;5071663;28;20040;-72
2021/09/09 00:10:25;;;;;;;2.47;1.50;;;;;;;19.31;76.82;99973.00;5039850;28;20465;-73
2021/09/09 00:12:50;;;;;;;2.40;1.75;;;;;;;19.26;76.84;99967.63;5008380;28;20028;-72
2021/09/09 00:15:16;;;;;;;1.95;1.40;;;;;;;19.20;76.92;99973.53;5069290;28;20036;-72
2021/09/09 00:17:41;;;;;;;3.47;1.85;;;;;;;19.17;76.83;99963.00;5090518;28;20036;-72
2021/09/09 00:20:09;;;;;;;2.72;1.40;;;;;;;19.14;76.86;99969.38;5077069;28;20082;-72
2021/09/09 00:22:35;;;;;;;2.78;1.73;;;;;;;19.14;76.89;99965.75;5054002;28;20029;-72
2021/09/09 00:25:00;;;;;;;3.67;2.10;;;;;;;19.10;76.69;99967.66;5053700;28;20040;-72
2021/09/09 00:27:26;;;;;;;4.35;1.80;;;;;;;19.07;77.10;99969.19;5042788;28;20036;-72
2021/09/09 00:29:51;;;;;;;4.97;1.85;;;;;;;19.05;77.05;99977.16;5073671;28;20032;-72
2021/09/09 00:32:17;;;;;;;3.33;1.52;;;;;;;19.00;77.12;99966.22;5042345;28;20029;-72
2021/09/09 00:34:42;;;;;;;4.68;2.22;;;;;;;19.00;77.31;99959.75;5023705;28;20033;-72
2021/09/09 00:37:07;;;;;;;4.95;1.85;;;;;;;18.97;77.10;99958.47;5022296;28;20386;-72
2021/09/09 00:39:33;;;;;;;3.25;1.73;;;;;;;18.96;77.36;99954.03;5073553;28;20034;-72
2021/09/09 00:41:58;;;;;;;4.85;2.05;;;;;;;18.91;77.07;99959.94;5026214;28;20033;-72
2021/09/09 00:44:27;;;;;;;3.72;1.95;;;;;;;18.91;76.95;99957.94;5057563;28;20037;-72
2021/09/09 00:47:11;;;;;;;3.83;1.90;;;;;;;18.89;77.00;99957.50;5040934;28;20060;-72
2021/09/09 00:49:39;;;;;;;4.82;2.28;;;;;;;18.85;77.62;99956.59;5024722;28;20041;-72
2021/09/09 00:52:05;;;;;;;4.28;2.00;;;;;;;18.85;77.39;99956.59;5090478;28;20036;-72
2021/09/09 00:54:30;;;;;;;3.22;1.95;;;;;;;18.79;77.45;99946.78;5088749;28;20075;-72
2021/09/09 00:56:56;;;;;;;5.93;2.13;;;;;;;18.80;77.59;99954.03;5056051;28;20097;-72
2021/09/09 00:59:21;;;;;;;3.30;1.90;;;;;;;18.77;77.35;99946.34;5072678;28;20413;-72
2021/09/09 01:01:47;;;;;;;3.33;1.80;;;;;;;18.74;77.87;99941.44;5072658;28;20057;-72
2021/09/09 01:04:13;;;;;;;4.90;2.40;;;;;;;18.72;77.45;99938.97;5041143;28;20055;-72
2021/09/09 01:06:39;;;;;;;2.55;1.90;;;;;;;18.70;77.81;99938.50;5058264;28;20028;-73
2021/09/09 01:09:04;;;;;;;2.60;1.80;;;;;;;18.68;78.02;99940.84;5037297;28;20054;-72
2021/09/09 01:11:30;;;;;;;4.55;1.90;;;;;;;18.67;77.59;99932.81;5068380;28;20604;-72
2021/09/09 01:14:13;;;;;;;3.55;2.03;;;;;;;18.62;77.89;99924.63;5068103;28;20034;-72
2021/09/09 01:16:39;;;;;;;4.82;2.03;;;;;;;18.59;77.60;99928.16;5073027;28;20032;-72
2021/09/09 01:19:05;;;;;;;6.38;2.05;;;;;;;18.56;77.78;99935.34;5058835;28;20044;-72
2021/09/09 01:21:31;;;;;;;3.05;1.77;;;;;;;18.56;77.92;99937.34;5054629;28;20051;-72
2021/09/09 01:23:57;;;;;;;4.35;2.00;;;;;;;18.55;77.60;99939.31;5056898;28;20069;-72
2021/09/09 01:26:23;;;;;;;3.78;2.03;;;;;;;18.55;77.82;99942.13;5062030;28;20058;-72
2021/09/09 01:28:48;;;;;;;3.65;2.17;;;;;;;18.52;78.25;99938.03;5059663;28;20033;-72
2021/09/09 01:31:14;;;;;;;6.32;2.20;;;;;;;18.52;78.23;99937.22;5078833;28;20032;-72
2021/09/09 01:33:40;;;;;;;3.00;2.17;;;;;;;18.50;78.40;99946.03;5029690;28;20035;-72
2021/09/09 01:36:05;;;;;;;3.03;2.00;;;;;;;18.47;78.65;99943.94;5042498;28;20037;-72
2021/09/09 01:38:31;;;;;;;5.38;2.30;;;;;;;18.45;78.83;99942.66;5068820;28;20515;-72
2021/09/09 01:40:56;;;;;;;3.00;2.00;;;;;;;18.47;78.74;99943.94;5075830;28;20028;-72
2021/09/09 01:43:22;;;;;;;6.72;2.45;;;;;;;18.46;79.12;99933.84;5060733;28;20036;-72
2021/09/09 01:45:47;;;;;;;3.28;2.17;;;;;;;18.48;79.21;99936.31;5058156;28;20073;-72
2021/09/09 01:48:12;;;;;;;5.47;2.33;;;;;;;18.47;79.42;99938.31;5061412;28;20058;-72
2021/09/09 01:50:38;;;;;;;6.95;2.50;;;;;;;18.49;79.73;99935.13;5093556;28;20496;-72
2021/09/09 01:53:04;;;;;;;3.85;2.70;;;;;;;18.53;79.77;99933.25;5061659;28;20545;-72
2021/09/09 01:55:29;;;;;;;3.83;2.67;;;;;;;18.51;80.49;99930.78;5042573;28;20469;-72
2021/09/09 01:57:55;;;;;;;4.63;2.40;;;;;;;18.54;80.87;99937.69;5054037;28;20036;-72
2021/09/09 02:00:20;;;;;;;5.25;2.65;;;;;;;18.58;80.36;99934.94;5042921;28;20025;-72
2021/09/09 02:02:46;;;;;;;4.70;2.45;;;;;;;18.57;81.49;99933.31;5060411;28;20448;-72
2021/09/09 02:05:12;;;;;;;4.90;2.20;;;;;;;18.58;81.12;99927.31;5078136;28;20029;-72
2021/09/09 02:07:37;;;;;;;4.47;2.28;;;;;;;18.60;81.32;99924.16;5092651;28;20032;-73
2021/09/09 02:10:03;;;;;;;4.32;2.20;;;;;;;18.60;80.57;99924.16;5043725;28;20037;-73
2021/09/09 02:12:29;;;;;;;6.82;2.70;;;;;;;18.62;80.10;99925.44;5059435;28;20036;-73
2021/09/09 02:14:54;;;;;;;7.53;3.05;;;;;;;18.68;80.95;99923.16;5052358;28;20072;-73
2021/09/09 02:17:20;;;;;;;5.57;2.33;;;;;;;18.67;80.73;99927.19;5029200;28;20029;-73
2021/09/09 02:19:45;;;;;;;5.18;2.13;;;;;;;18.69;80.67;99921.97;5058972;28;20385;-72
2021/09/09 02:22:11;;;;;;;4.72;2.50;;;;;;;18.71;81.46;99916.81;5061613;28;20484;-73
2021/09/09 02:24:36;;;;;;;4.95;2.35;;;;;;;18.69;82.01;99914.38;5058746;28;20017;-72
2021/09/09 02:27:02;;;;;;;5.57;2.63;;;;;;;18.71;81.04;99906.38;5043204;28;20036;-73
2021/09/09 02:29:28;;;;;;;3.42;2.50;;;;;;;18.73;81.12;99904.03;5058800;28;20032;-73
2021/09/09 02:31:53;;;;;;;5.90;3.03;;;;;;;18.73;82.01;99914.47;5044621;28;20412;-73
2021/09/09 02:34:19;;;;;;;3.95;2.80;;;;;;;18.72;80.94;99910.00;5043962;28;20029;-72
2021/09/09 02:36:44;;;;;;;5.85;3.00;;;;;;;18.75;81.54;99903.72;5057948;28;20047;-72
2021/09/09 02:39:10;;;;;;;4.07;2.28;;;;;;;18.75;81.79;99906.53;5076681;28;20040;-72
2021/09/09 02:41:35;;;;;;;5.53;2.80;;;;;;;18.76;81.65;99910.94;5077558;28;20036;-72
2021/09/09 02:44:00;;;;;;;6.97;3.20;;;;;;;18.78;81.75;99910.56;5044433;28;20052;-72
2021/09/09 02:46:26;;;;;;;4.80;2.45;;;;;;;18.81;81.58;99907.06;5058457;28;20089;-73
2021/09/09 02:48:52;;;;;;;6.30;3.33;;;;;;;18.79;82.27;99904.59;5058358;28;20033;-73
2021/09/09 02:51:17;;;;;;;6.22;3.22;;;;;;;18.82;82.55;99906.69;5058574;28;20032;-72
2021/09/09 02:53:43;;;;;;;6.75;2.97;;;;;;;18.84;82.28;99911.94;5040371;28;20055;-72
2021/09/09 02:56:08;;;;;;;5.95;3.40;;;;;;;18.84;83.04;99904.31;5025054;28;20037;-73
2021/09/09 02:58:34;;;;;;;4.38;2.40;;;;;;;18.84;81.63;99912.75;5025348;28;20159;-73
2021/09/09 03:00:59;;;;;;;9.30;3.65;;;;;;;18.81;83.20;99913.50;5021111;28;20024;-73
2021/09/09 03:03:25;;;;;;;6.60;3.33;;;;;;;18.83;82.54;99905.47;5056743;28;20039;-73
2021/09/09 03:05:50;;;;;;;5.88;3.00;;;;;;;18.83;81.94;99905.47;5058149;28;20078;-73
2021/09/09 03:08:16;;;;;;;7.57;2.78;;;;;;;18.86;82.65;99907.59;5039351;28;20033;-74
2021/09/09 03:10:41;;;;;;;4.82;3.03;;;;;;;18.85;82.60;99902.31;5025747;28;20032;-73
2021/09/09 03:13:07;;;;;;;6.63;2.88;;;;;;;18.85;82.87;99900.31;5041634;28;20034;-73
2021/09/09 03:15:32;;;;;;;8.07;3.10;;;;;;;18.82;81.49;99892.59;5026369;28;20025;-73
2021/09/09 03:17:58;;;;;;;6.28;2.85;;;;;;;18.86;82.33;99899.16;5043469;28;20035;-73
2021/09/09 03:20:23;;;;;;;5.40;2.75;;;;;;;18.86;81.63;99901.97;5057180;28;20040;-73
2021/09/09 03:22:49;;;;;;;5.07;2.30;;;;;;;18.91;81.62;99907.28;5074368;28;20036;-73
2021/09/09 03:25:14;;;;;;;3.00;2.40;;;;;;;18.89;81.51;99906.06;5019664;28;20028;-73
2021/09/09 03:27:40;;;;;;;5.60;2.58;;;;;;;18.88;82.25;99912.84;5071454;28;20033;-73
2021/09/09 03:30:06;;;;;;;7.90;3.33;;;;;;;18.88;83.51;99910.03;5069466;28;20021;-72
2021/09/09 03:32:31;;;;;;;5.53;2.42;;;;;;;18.89;82.99;99911.69;5073264;28;20456;-72
2021/09/09 03:34:57;;;;;;;4.68;2.60;;;;;;;18.89;81.50;99909.69;5076624;28;20040;-72
2021/09/09 03:37:22;;;;;;;5.45;2.88;;;;;;;18.87;82.29;99900.78;5075474;28;20039;-72
2021/09/09 03:39:47;;;;;;;3.20;2.42;;;;;;;18.88;81.43;99904.41;5058523;28;20388;-72
2021/09/09 03:42:13;;;;;;;4.68;2.20;;;;;;;18.87;81.26;99905.59;5055364;28;20036;-72
2021/09/09 03:44:38;;;;;;;5.30;2.80;;;;;;;18.89;82.07;99892.78;5057093;28;20032;-72
2021/09/09 03:47:04;;;;;;;7.45;3.05;;;;;;;18.89;82.57;99901.25;5075040;28;20039;-73
2021/09/09 03:49:30;;;;;;;4.22;2.45;;;;;;;18.84;84.35;99904.31;5070930;28;20059;-73
2021/09/09 03:51:55;;;;;;;6.50;2.97;;;;;;;18.84;83.36;99907.13;5038318;28;20036;-73
2021/09/09 03:54:20;;;;;;;4.50;2.53;;;;;;;18.88;82.77;99904.41;5053815;28;20036;-73
2021/09/09 03:56:46;;;;;;;5.50;2.40;;;;;;;18.87;83.83;99908.41;5047842;28;20029;-73
2021/09/09 03:59:11;;;;;;;5.65;2.30;;;;;;;18.86;82.29;99903.94;5055227;28;20439;-73
2021/09/09 04:01:37;;;;;;;5.93;3.40;;;;;;;18.86;83.55;99898.31;5053514;28;20028;-73
2021/09/09 04:04:03;;;;;;;6.57;2.47;;;;;;;18.86;83.48;99896.34;5052314;28;20044;-72
2021/09/09 04:06:28;;;;;;;6.88;2.63;;;;;;;18.88;83.52;99898.78;5055496;28;20052;-73
2021/09/09 04:08:54;;;;;;;4.25;2.22;;;;;;;18.88;82.78;99899.59;5071288;28;20037;-73
2021/09/09 04:11:19;;;;;;;3.70;2.20;;;;;;;18.89;82.90;99895.59;5053452;28;20469;-73
2021/09/09 04:13:45;;;;;;;5.38;2.15;;;;;;;18.89;82.43;99894.81;5056043;28;20036;-72
2021/09/09 04:16:10;;;;;;;4.75;2.33;;;;;;;18.88;83.29;99893.16;5058324;28;20056;-73
2021/09/09 04:18:36;;;;;;;4.70;2.40;;;;;;;18.89;83.55;99884.34;5071256;28;20119;-72
2021/09/09 04:21:01;;;;;;;4.25;2.10;;;;;;;18.92;82.62;99888.44;5051920;28;20041;-73
2021/09/09 04:23:27;;;;;;;6.75;2.92;;;;;;;18.90;82.66;99894.41;5048130;28;20038;-72
2021/09/09 04:25:52;;;;;;;7.32;2.58;;;;;;;18.91;83.87;99884.78;5055767;28;20087;-72
2021/09/09 04:28:18;;;;;;;7.85;2.20;;;;;;;18.91;82.81;99892.41;5047816;28;20086;-72
2021/09/09 04:30:43;;;;;;;6.53;2.35;;;;;;;18.86;84.36;99896.34;5037612;28;20489;-73
2021/09/09 04:33:09;;;;;;;5.00;2.45;;;;;;;18.87;83.05;99897.97;5070042;28;20028;-72
2021/09/09 04:35:34;;;;;;;4.88;2.30;;;;;;;18.87;83.12;99891.53;5056033;28;20032;-72
2021/09/09 04:38:00;;;;;;;6.45;2.30;;;;;;;18.88;82.93;99887.53;5054584;28;20037;-73
2021/09/09 04:40:25;;;;;;;3.40;2.20;;;;;;;18.86;83.68;99887.91;5054224;28;20021;-72
2021/09/09 04:42:51;;;;;;;4.00;2.25;;;;;;;18.87;82.85;99878.28;5053233;28;20039;-72
2021/09/09 04:45:16;;;;;;;4.03;1.80;;;;;;;18.84;82.53;99884.63;5069421;28;20494;-73
2021/09/09 04:47:42;;;;;;;3.72;2.08;;;;;;;18.82;82.43;99878.53;5047147;28;20029;-72
2021/09/09 04:50:08;;;;;;;6.28;2.08;;;;;;;18.83;82.76;99891.41;5020991;28;20037;-73
2021/09/09 04:52:33;;;;;;;3.55;1.83;;;;;;;18.81;82.49;99885.38;5036014;28;20029;-72
2021/09/09 04:54:59;;;;;;;6.07;2.33;;;;;;;18.84;83.14;99892.25;5018127;28;20037;-72
2021/09/09 04:57:24;;;;;;;3.90;1.95;;;;;;;18.81;83.58;99893.81;5056221;28;20039;-72
2021/09/09 04:59:50;;;;;;;4.15;1.75;;;;;;;18.81;82.91;99893.81;5057622;28;20032;-73
2021/09/09 05:02:15;;;;;;;4.47;2.08;;;;;;;18.78;83.17;99896.50;5026485;28;20033;-72
2021/09/09 05:04:41;;;;;;;4.72;2.47;;;;;;;18.75;84.62;99886.81;5059516;28;20033;-73
2021/09/09 05:07:06;;;;;;;6.35;2.10;;;;;;;18.72;82.77;99898.75;5019727;28;20045;-73
2021/09/09 05:09:32;;;;;;;5.45;1.80;;;;;;;18.73;82.94;99898.41;5059774;28;20083;-73
2021/09/09 05:11:57;;;;;;;3.80;2.53;;;;;;;18.76;83.73;99894.06;5056944;28;20048;-72
2021/09/09 05:14:23;;;;;;;4.35;2.10;;;;;;;18.73;83.34;99891.97;5064259;28;20035;-73
2021/09/09 05:16:48;;;;;;;3.85;1.90;;;;;;;18.72;83.19;99887.50;5059078;28;20087;-72
2021/09/09 05:19:14;;;;;;;6.22;2.45;;;;;;;18.72;83.77;99884.69;5057082;28;20044;-73
2021/09/09 05:21:39;;;;;;;4.07;1.67;;;;;;;18.69;83.26;99883.44;5058452;28;20025;-72
2021/09/09 05:24:05;;;;;;;6.70;2.40;;;;;;;18.69;83.70;99883.44;5058809;28;20037;-72
2021/09/09 05:26:30;;;;;;;5.18;2.20;;;;;;;18.70;84.24;99878.63;5024343;28;20024;-73
2021/09/09 05:28:56;;;;;;;5.85;1.83;;;;;;;18.68;82.88;99887.41;5008324;28;20041;-72
2021/09/09 05:31:21;;;;;;;3.50;1.80;;;;;;;18.68;83.53;99892.22;5041598;28;20028;-72
2021/09/09 05:33:47;;;;;;;5.55;2.20;;;;;;;18.65;83.47;99887.34;5056864;28;20036;-72
2021/09/09 05:36:12;;;;;;;3.08;1.73;;;;;;;18.65;83.20;99895.78;5055410;28;20528;-72
2021/09/09 05:38:38;;;;;;;4.32;1.70;;;;;;;18.65;84.09;99898.59;5038400;28;20029;-72
2021/09/09 05:41:03;;;;;;;4.30;1.90;;;;;;;18.61;82.83;99906.94;5055966;28;20033;-72
2021/09/09 05:43:29;;;;;;;7.30;2.22;;;;;;;18.60;83.63;99899.66;5087649;28;20032;-73
2021/09/09 05:45:54;;;;;;;6.68;2.40;;;;;;;18.60;85.25;99904.47;5023019;28;20036;-72
2021/09/09 05:48:20;;;;;;;4.90;1.90;;;;;;;18.59;83.95;99905.66;5024077;28;20036;-73
2021/09/09 05:50:45;;;;;;;4.38;2.00;;;;;;;18.60;83.93;99907.28;5038842;28;20045;-72
2021/09/09 05:53:11;;;;;;;6.00;2.25;;;;;;;18.57;84.00;99910.84;5057524;28;20040;-72
2021/09/09 05:55:36;;;;;;;5.72;2.53;;;;;;;18.60;84.78;99908.09;5039787;28;20029;-73
2021/09/09 05:58:03;;;;;;;6.60;2.75;;;;;;;18.57;85.38;99903.22;5056829;28;20044;-72
2021/09/09 06:00:29;;;;;;;8.60;2.47;;;;;;;18.57;85.47;99902.41;5072567;28;20432;-72
2021/09/09 06:02:59;;;;;;;6.85;2.70;;;;;;;18.59;87.88;99900.06;5059478;28;20033;-72
2021/09/09 06:05:26;;;;;;;6.45;2.10;;;;;;;18.57;85.36;99896.78;5054518;28;20028;-72
2021/09/09 06:07:52;;;;;;;5.97;2.10;;;;;;;18.57;85.62;99897.59;5056289;28;20029;-72
2021/09/09 06:10:17;;;;;;;6.57;2.35;;;;;;;18.58;87.07;99889.97;5037218;28;20063;-72
2021/09/09 06:12:43;;;;;;;3.97;1.90;;;;;;;18.59;86.24;99897.25;5056312;28;20029;-75
2021/09/09 06:15:09;;;;;;;4.38;1.83;;;;;;;18.62;86.02;99890.88;5089482;28;20583;-72
2021/09/09 06:17:34;;;;;;;5.45;2.42;;;;;;;18.62;87.90;99899.31;5007902;28;20044;-72
2021/09/09 06:20:00;;;;;;;6.03;2.47;;;;;;;18.63;86.06;99893.31;5038823;28;20079;-72
2021/09/09 06:22:25;;;;;;;7.10;2.38;;;;;;;18.65;87.54;99899.41;5056764;28;20044;-72
2021/09/09 06:24:51;;;;;;;7.93;2.83;;;;;;;18.67;87.04;99890.63;5040080;28;20032;-73
2021/09/09 06:27:16;;;;;;;3.25;1.60;;;;;;;18.67;86.55;99885.00;5056947;28;20231;-73
2021/09/09 06:29:42;;;;;;;4.88;2.17;;;;;;;18.68;86.81;99881.78;5007337;28;20017;-73
2021/09/09 06:32:07;;;;;;;6.20;2.42;;;;;;;18.71;87.12;99883.06;5074279;28;20028;-72
2021/09/09 06:34:33;;;;;;;4.25;2.00;;;;;;;18.78;88.06;99880.47;5037883;28;20033;-72
2021/09/09 06:36:58;;;;;;;3.13;1.70;;;;;;;18.78;87.15;99888.91;5089350;28;20033;-72
2021/09/09 06:39:24;;;;;;;4.00;1.77;;;;;;;18.83;87.28;99888.59;5089385;28;20512;-72
2021/09/09 06:41:49;;;;;;;4.03;2.35;;;;;;;18.88;87.34;99884.72;5086852;28;20025;-72
2021/09/09 06:44:15;;;;;;;3.78;2.17;;;;;;;18.89;87.22;99883.53;5040640;28;20029;-72
2021/09/09 06:46:41;;;;;;;4.28;1.73;;;;;;;18.96;87.59;99892.13;5004447;28;20616;-72
2021/09/09 06:49:06;;;;;;;4.13;1.70;;;;;;;19.01;87.63;99891.06;5035940;28;20108;-72
2021/09/09 06:51:32;;;;;;;8.35;2.38;;;;;;;19.04;88.25;99888.31;5053566;28;20492;-72
2021/09/09 06:53:57;;;;;;;2.92;1.80;;;;;;;19.08;88.33;99882.75;5041912;28;20039;-72
2021/09/09 06:56:23;;;;;;;4.55;2.20;;;;;;;19.12;86.91;99892.13;5061307;28;20028;-72
2021/09/09 06:58:49;;;;;;;9.48;2.50;;;;;;;19.15;88.60;99891.38;5021840;28;20029;-72
2021/09/09 07:01:14;;;;;;;6.28;2.35;;;;;;;19.19;87.75;99890.28;5058869;28;20025;-72
2021/09/09 07:03:40;;;;;;;6.03;1.98;;;;;;;19.22;87.64;99890.72;5075850;28;20033;-72
2021/09/09 07:06:05;;;;;;;5.20;2.15;;;;;;;19.25;87.95;99887.16;5027474;28;20024;-72
2021/09/09 07:08:31;;;;;;;7.75;2.55;;;;;;;19.28;87.78;99887.25;5073415;28;20036;-72
2021/09/09 07:10:56;;;;;;;4.18;2.05;;;;;;;19.30;87.84;99887.69;5041633;28;20024;-72
2021/09/09 07:13:23;;;;;;;4.72;2.10;;;;;;;19.32;86.81;99879.69;5055766;28;20361;-72
2021/09/09 07:15:49;;;;;;;4.38;2.10;;;;;;;19.35;86.74;99878.97;5025879;28;20036;-72
2021/09/09 07:18:15;;;;;;;5.00;1.98;;;;;;;19.37;86.66;99882.22;5075521;28;20036;-72
2021/09/09 07:20:41;;;;;;;4.35;2.13;;;;;;;19.40;87.60;99880.69;5041845;28;20073;-72
2021/09/09 07:23:06;;;;;;;4.70;2.08;;;;;;;19.43;87.57;99885.56;5043343;28;20036;-72
2021/09/09 07:25:32;;;;;;;3.55;1.60;;;;;;;19.47;87.65;99888.44;5026571;28;20431;-72
2021/09/09 07:27:57;;;;;;;4.80;1.90;;;;;;;19.50;87.75;99890.53;5025218;28;20115;-72
2021/09/09 07:30:23;;;;;;;5.40;2.00;;;;;;;19.54;87.72;99894.25;5027270;28;20028;-72
2021/09/09 07:32:49;;;;;;;7.20;2.40;;;;;;;19.57;87.92;99890.69;5072631;28;20036;-72
2021/09/09 07:35:14;;;;;;;5.93;2.50;;;;;;;19.61;87.87;99897.19;5025089;28;20033;-72
2021/09/09 07:37:40;;;;;;;5.13;2.05;;;;;;;19.66;86.69;99894.13;5057069;28;20032;-72
2021/09/09 07:40:06;;;;;;;4.93;1.98;;;;;;;19.70;87.42;99886.59;5042595;28;20032;-72
2021/09/09 07:42:33;;;;;;;7.32;2.40;;;;;;;19.73;87.44;99896.28;5033827;28;20405;-72
2021/09/09 07:44:59;;;;;;;5.90;2.00;;;;;;;19.77;87.52;99900.78;5009516;28;20070;-72
2021/09/09 07:47:25;;;;;;;6.28;2.22;;;;;;;19.84;87.37;99894.50;5058897;28;20480;-72
2021/09/09 07:49:50;;;;;;;7.10;2.15;;;;;;;19.89;86.42;99902.63;5055921;28;20059;-72
2021/09/09 07:52:16;;;;;;;5.50;2.08;;;;;;;19.96;86.67;99904.81;5038152;28;20040;-72
2021/09/09 07:54:41;;;;;;;3.25;1.70;;;;;;;20.00;86.56;99908.50;5049984;28;20488;-72
2021/09/09 07:57:07;;;;;;;4.97;2.10;;;;;;;20.06;86.19;99904.22;5052494;28;20083;-72
2021/09/09 07:59:33;;;;;;;4.90;2.08;;;;;;;20.11;85.59;99909.50;5037210;28;20025;-72
2021/09/09 08:01:58;;;;;;;6.72;2.10;;;;;;;20.18;86.43;99911.69;5037251;28;20615;-72
2021/09/09 08:04:24;;;;;;;3.88;2.03;;;;;;;20.24;85.50;99908.16;5054539;28;20032;-72
2021/09/09 08:06:49;;;;;;;5.30;2.08;;;;;;;20.30;86.41;99911.50;5018335;28;20020;-72
2021/09/09 08:09:15;;;;;;;6.57;2.00;;;;;;;20.36;85.55;99895.06;5046670;28;20033;-72
2021/09/09 08:11:41;;;;;;;7.18;2.38;;;;;;;20.40;86.27;99898.78;5037734;28;20025;-72
2021/09/09 08:14:06;;;;;;;4.05;1.63;;;;;;;20.47;86.09;99904.53;5037898;28;20044;-72
2021/09/09 08:16:32;;;;;;;4.95;1.85;;;;;;;20.55;84.89;99902.69;5044928;28;20397;-72
2021/09/09 08:18:57;;;;;;;5.68;1.90;;;;;;;20.63;84.12;99893.97;5054346;28;20039;-72
2021/09/09 08:21:23;;;;;;;4.68;1.95;;;;;;;20.78;84.18;99903.50;5039939;28;20393;-72
2021/09/09 08:23:49;;;;;;;5.28;1.90;;;;;;;20.91;83.73;99896.44;5023823;28;20032;-72
2021/09/09 08:26:14;;;;;;;6.18;1.98;;;;;;;21.03;84.04;99895.41;5066937;28;20063;-72
2021/09/09 08:28:40;;;;;;;5.97;2.20;;;;;;;21.15;83.63;99900.88;5019956;28;20029;-72
2021/09/09 08:31:06;;;;;;;4.35;1.90;;;;;;;21.29;83.38;99896.63;5044229;28;20572;-72
2021/09/09 08:33:32;;;;;;;5.90;2.10;;;;;;;21.41;83.22;99902.06;5054874;28;20039;-72
2021/09/09 08:36:01;;;;;;;7.05;2.25;;;;;;;21.52;83.26;99908.66;5062668;28;20037;-72
2021/09/09 08:38:27;;;;;;;6.05;2.25;;;;;;;21.66;83.17;99895.94;5070072;28;20025;-72
2021/09/09 08:40:53;;;;;;;7.88;2.13;;;;;;;21.81;84.00;99901.41;5047208;28;20094;-72
2021/09/09 08:43:18;;;;;;;5.78;2.10;;;;;;;21.97;82.14;99903.97;5049068;28;20038;-72
2021/09/09 08:45:50;;;;;;;6.05;2.25;;;;;;;22.14;83.02;99907.41;5043968;28;20038;-72
2021/09/09 08:48:15;;;;;;;7.95;2.50;;;;;;;22.26;82.84;99896.69;5017818;28;20099;-72
2021/09/09 08:50:41;;;;;;;6.40;1.90;;;;;;;22.40;81.00;99896.00;5034090;28;20053;-72
2021/09/09 08:53:09;;;;;;;5.88;2.10;;;;;;;22.57;81.54;99910.72;5048650;28;20045;-72
2021/09/09 08:55:35;;;;;;;8.18;2.28;;;;;;;22.69;80.58;99902.72;5005899;28;20083;-72
2021/09/09 08:58:02;;;;;;;5.75;2.05;;;;;;;22.81;80.49;99903.63;5050253;28;20033;-73
2021/09/09 09:00:27;;;;;;;7.35;2.17;;;;;;;22.91;79.92;99909.38;5044572;28;20035;-73
2021/09/09 09:02:55;;;;;;;5.55;2.13;;;;;;;23.00;79.46;99911.09;5037075;28;20029;-73
2021/09/09 09:05:21;;;;;;;6.90;2.30;;;;;;;23.09;78.70;99905.88;5007581;28;20061;-73
2021/09/09 09:07:46;;;;;;;8.52;2.60;;;;;;;23.11;78.57;99911.97;5029456;28;20022;-73
2021/09/09 09:10:12;;;;;;;9.45;2.92;;;;;;;23.09;78.79;99909.53;5000754;28;20033;-73
2021/09/09 09:12:44;;;;;;;9.40;2.50;;;;;;;23.04;79.06;99907.09;5033644;28;20034;-73
2021/09/09 09:15:23;;;;;;;8.60;2.00;;;;;;;22.97;79.15;99918.34;5033766;28;20029;-73
2021/09/09 09:18:02;;;;;;;7.60;2.70;;;;;;;22.85;79.88;99918.63;5045230;28;20041;-73
2021/09/09 09:20:47;;;;;;;5.90;2.08;;;;;;;22.77;79.85;99919.78;5035188;28;20064;-72
2021/09/09 09:23:16;;;;;;;5.78;2.55;;;;;;;22.68;79.92;99917.28;5020615;28;20056;-73
2021/09/09 09:25:46;;;;;;;5.93;2.40;;;;;;;22.58;80.33;99929.31;5018795;28;20082;-73
2021/09/09 09:28:12;;;;;;;6.57;2.25;;;;;;;22.51;80.32;99928.03;5051489;28;20037;-73
2021/09/09 09:30:38;;;;;;;8.65;2.38;;;;;;;22.41;80.98;99925.91;5030895;28;20036;-72
2021/09/09 09:33:03;;;;;;;8.55;2.65;;;;;;;22.32;81.25;99921.78;5050115;28;20029;-73
2021/09/09 09:35:30;;;;;;;8.23;2.55;;;;;;;22.24;81.34;99927.34;5016175;28;20033;-73
2021/09/09 09:38:05;;;;;;;7.68;2.97;;;;;;;22.14;81.74;99927.19;5055427;28;20033;-73
2021/09/09 09:40:40;;;;;;;7.18;2.67;;;;;;;22.06;82.62;99918.66;5038234;28;20088;-73
2021/09/09 09:43:07;;;;;;;8.52;2.88;;;;;;;21.99;83.64;99924.22;5019294;28;20516;-73
2021/09/09 09:45:33;;;;;;;8.27;2.95;;;;;;;21.97;84.22;99923.78;5045961;28;20033;-73
2021/09/09 09:47:58;;;;;;;8.35;3.15;;;;;;;21.95;86.09;99920.50;5040039;28;20037;-73
2021/09/09 09:50:24;;;;;;;10.25;3.60;;;;;;;21.99;85.60;99921.38;5022425;28;20045;-73
2021/09/09 09:53:10;;;;;;;9.38;3.33;;;;;;;22.03;87.61;99922.22;5034795;28;20042;-72
2021/09/09 09:55:42;;;;;;;8.75;3.33;;;;;;;22.11;87.34;99922.31;5044765;28;20038;-72
2021/09/09 09:58:07;;;;;;;7.07;3.08;;;;;;;22.16;86.48;99916.31;5036186;28;20036;-72
2021/09/09 10:00:33;;;;;;;8.45;3.28;;;;;;;22.21;86.12;99922.47;5052662;28;20029;-72
2021/09/09 10:02:58;;;;;;;7.45;3.55;;;;;;;22.26;87.08;99921.31;5035571;28;20034;-72
2021/09/09 10:05:24;;;;;;;6.53;2.70;;;;;;;22.31;86.18;99918.13;5021030;28;20034;-72
2021/09/09 10:07:49;;;;;;;4.97;2.90;;;;;;;22.37;86.85;99913.75;5026920;28;20034;-72
2021/09/09 10:10:15;;;;;;;10.25;3.55;;;;;;;22.47;86.31;99900.91;5051887;28;20025;-72
2021/09/09 10:12:43;;;;;;;7.45;3.40;;;;;;;22.55;86.29;99907.47;5036205;28;20034;-72
2021/09/09 10:15:12;;;;;;;10.20;3.53;;;;;;;22.62;86.21;99896.19;5025060;28;20021;-72
2021/09/09 10:17:37;;;;;;;6.63;3.45;;;;;;;22.69;85.63;99911.22;5043270;28;20557;-72
2021/09/09 10:20:31;;;;;;;9.65;3.72;;;;;;;22.78;85.65;99905.22;5053922;28;20033;-72
2021/09/09 10:23:00;;;;;;;7.13;3.67;;;;;;;22.85;85.09;99905.28;5029744;28;20053;-72
2021/09/09 10:25:38;;;;;;;7.28;3.72;;;;;;;22.96;84.75;99909.06;5035107;28;20087;-72
2021/09/09 10:28:04;;;;;;;10.68;3.80;;;;;;;23.09;83.72;99908.72;5035036;28;20462;-72
2021/09/09 10:30:29;;;;;;;11.40;4.38;;;;;;;23.18;84.36;99904.34;5022651;28;20091;-72
2021/09/09 10:32:56;;;;;;;6.55;3.80;;;;;;;23.28;85.48;99908.44;5018855;28;20037;-72
2021/09/09 10:35:26;;;;;;;10.20;4.35;;;;;;;23.32;85.50;99911.31;5041202;28;20482;-72
2021/09/09 10:37:56;;;;;;;11.65;3.80;;;;;;;23.35;84.00;99904.88;5050748;28;20043;-73
2021/09/09 10:40:28;;;;;;;7.88;3.90;;;;;;;23.34;83.32;99906.88;5002745;28;20034;-72
2021/09/09 10:42:54;;;;;;;8.45;3.53;;;;;;;23.34;83.08;99906.88;5035680;28;20123;-72
2021/09/09 10:45:35;;;;;;;11.85;4.00;;;;;;;23.33;83.11;99901.59;5033961;28;21943;-72
2021/09/09 10:48:05;;;;;;;10.77;3.38;;;;;;;23.31;82.60;99899.16;5044412;28;20038;-72
2021/09/09 10:50:31;;;;;;;5.50;3.50;;;;;;;23.29;82.09;99901.59;5025198;28;20034;-72
2021/09/09 10:53:00;;;;;;;6.45;3.40;;;;;;;23.19;82.94;99905.97;5053065;28;20060;-72
2021/09/09 10:55:27;;;;;;;9.68;3.97;;;;;;;23.19;82.08;99911.63;5034552;28;20025;-72
2021/09/09 10:58:14;;;;;;;7.32;3.50;;;;;;;23.17;82.49;99905.53;5049810;28;20037;-72
2021/09/09 11:00:52;;;;;;;7.28;3.25;;;;;;;23.13;82.62;99912.41;5066652;28;20393;-72
2021/09/09 11:03:43;;;;;;;7.55;2.85;;;;;;;23.07;82.55;99916.81;5068829;28;20029;-72
2021/09/09 11:06:19;;;;;;;3.00;2.15;;;;;;;23.09;81.81;99922.88;5064541;28;20057;-72
2021/09/09 11:08:47;;;;;;;4.22;2.50;;;;;;;23.05;82.04;99913.56;5023646;28;20043;-72
2021/09/09 11:11:14;;;;;;;5.53;2.67;;;;;;;23.08;82.15;99910.75;5026524;28;20060;-72
2021/09/09 11:13:40;;;;;;;4.50;2.33;;;;;;;23.12;83.10;99910.75;5028849;28;20029;-72
2021/09/09 11:16:28;;;;;;;4.70;2.40;;;;;;;23.21;82.59;99908.41;5019226;28;20355;-72
2021/09/09 11:18:53;;;;;;;7.30;2.65;;;;;;;23.36;83.88;99901.63;5031489;28;20147;-72
2021/09/09 11:21:30;;;;;;;5.07;2.33;;;;;;;23.56;83.35;99907.00;5003086;28;20042;-72
2021/09/09 11:24:04;;;;;;;3.35;2.15;;;;;;;23.78;82.52;99903.06;5016727;28;20177;-72
2021/09/09 11:26:29;;;;;;;2.53;1.42;;;;;;;24.02;81.64;99906.41;5062133;28;20025;-72
2021/09/09 11:28:56;;;;;;;3.83;1.80;;;;;;;24.26;80.59;99902.00;5035118;28;20528;-72
2021/09/09 11:31:34;;;;;;;4.32;1.52;;;;;;;24.48;79.47;99897.22;5051180;28;20433;-72